WUK416G EGGW-LRBV
Flight info
| Callsign | WUK416G |
|---|---|
| Flight time | N/A |
| Altitude | 39000 |
| Route | MATCH Q295 BRAIN M197 REDFA DCT TACHA DCT TIVUN DCT ESAMA DCT OSBIT DCT BOREP DCT ENITA DCT IPDUL DCT PEPIK DCT UVERA DCT BUDOP DCT NERDI DCT ZULOC DCT LEBAT |
| Aircraft | A20N/M-SDE2E3FGHIRWXY/LB1 |
Departure
| Time | 2026-05-07 08:57 |
|---|---|
| Airport | London Luton Airport (EGGW) |
Arrival
| Time | N/A |
|---|---|
| Airport | Brașov-Ghimbav International Airport (LRBV) |
| Time | Latitude | Longitude | Altitude | Speed | Heading |
|---|---|---|---|---|---|
| 2026-05-07 08:44 | 51.88087 | -0.37356 | 524 ft | 0 kts | 341° |
| 2026-05-07 08:49 | 51.88074 | -0.37349 | 524 ft | 3 kts | 341° |
| 2026-05-07 08:50 | 51.88056 | -0.37339 | 524 ft | 3 kts | 341° |
| 2026-05-07 08:50 | 51.88038 | -0.37337 | 524 ft | 3 kts | 19° |
| 2026-05-07 08:50 | 51.88023 | -0.37354 | 524 ft | 3 kts | 59° |
| 2026-05-07 08:50 | 51.88019 | -0.37368 | 524 ft | 0 kts | 70° |
| 2026-05-07 08:51 | 51.88020 | -0.37363 | 524 ft | 2 kts | 75° |
| 2026-05-07 08:52 | 51.88021 | -0.37331 | 524 ft | 4 kts | 86° |
| 2026-05-07 08:52 | 51.88029 | -0.37278 | 524 ft | 6 kts | 73° |
| 2026-05-07 08:52 | 51.88045 | -0.37202 | 524 ft | 8 kts | 76° |
| 2026-05-07 08:52 | 51.88017 | -0.37129 | 524 ft | 9 kts | 156° |
| 2026-05-07 08:53 | 51.87952 | -0.37093 | 524 ft | 11 kts | 161° |
| 2026-05-07 08:53 | 51.87877 | -0.37053 | 524 ft | 12 kts | 162° |
| 2026-05-07 08:53 | 51.87790 | -0.37007 | 524 ft | 14 kts | 162° |
| 2026-05-07 08:53 | 51.87694 | -0.36956 | 524 ft | 15 kts | 161° |
| 2026-05-07 08:54 | 51.87620 | -0.37032 | 524 ft | 15 kts | 252° |
| 2026-05-07 08:54 | 51.87591 | -0.37203 | 524 ft | 16 kts | 254° |
| 2026-05-07 08:54 | 51.87586 | -0.37384 | 525 ft | 16 kts | 266° |
| 2026-05-07 08:54 | 51.87515 | -0.37520 | 525 ft | 16 kts | 236° |
| 2026-05-07 08:55 | 51.87478 | -0.37695 | 525 ft | 17 kts | 254° |
| 2026-05-07 08:55 | 51.87446 | -0.37883 | 526 ft | 17 kts | 255° |
| 2026-05-07 08:55 | 51.87398 | -0.38041 | 526 ft | 15 kts | 223° |
| 2026-05-07 08:55 | 51.87306 | -0.38108 | 526 ft | 14 kts | 197° |
| 2026-05-07 08:56 | 51.87258 | -0.38036 | 526 ft | 11 kts | 83° |
| 2026-05-07 08:56 | 51.87291 | -0.37828 | 527 ft | 44 kts | 74° |
| 2026-05-07 08:56 | 51.87437 | -0.37002 | 525 ft | 110 kts | 74° |
| 2026-05-07 08:56 | 51.87696 | -0.35470 | 639 ft | 159 kts | 76° |
| 2026-05-07 08:57 | 51.88010 | -0.33721 | 1300 ft | 161 kts | 75° |
| 2026-05-07 08:57 | 51.88320 | -0.32012 | 2137 ft | 164 kts | 76° |
| 2026-05-07 08:57 | 51.88653 | -0.30061 | 2475 ft | 193 kts | 77° |
| 2026-05-07 08:57 | 51.89033 | -0.27786 | 2709 ft | 226 kts | 76° |
| 2026-05-07 08:58 | 51.89444 | -0.25197 | 3119 ft | 248 kts | 80° |
| 2026-05-07 08:58 | 51.89466 | -0.22385 | 3859 ft | 253 kts | 104° |
| 2026-05-07 08:58 | 51.88730 | -0.19841 | 4568 ft | 253 kts | 130° |
| 2026-05-07 08:58 | 51.87355 | -0.18131 | 4925 ft | 252 kts | 157° |
| 2026-05-07 08:59 | 51.85653 | -0.17399 | 4993 ft | 254 kts | 170° |
| 2026-05-07 08:59 | 51.83916 | -0.16832 | 4993 ft | 255 kts | 163° |
| 2026-05-07 08:59 | 51.82247 | -0.15900 | 4994 ft | 255 kts | 159° |
| 2026-05-07 08:59 | 51.80592 | -0.14803 | 5000 ft | 256 kts | 156° |
| 2026-05-07 09:00 | 51.79060 | -0.13367 | 5308 ft | 259 kts | 141° |
| 2026-05-07 09:00 | 51.77890 | -0.11118 | 6149 ft | 263 kts | 119° |
| 2026-05-07 09:00 | 51.77357 | -0.08391 | 6993 ft | 268 kts | 101° |
| 2026-05-07 09:00 | 51.77221 | -0.05348 | 7801 ft | 273 kts | 91° |
| 2026-05-07 09:01 | 51.77328 | -0.02243 | 8643 ft | 278 kts | 85° |
| 2026-05-07 09:01 | 51.77546 | 0.00879 | 9491 ft | 282 kts | 83° |
| 2026-05-07 09:01 | 51.77796 | 0.04033 | 10308 ft | 287 kts | 82° |
| 2026-05-07 09:01 | 51.78051 | 0.07310 | 10685 ft | 308 kts | 83° |
| 2026-05-07 09:02 | 51.78307 | 0.10884 | 10986 ft | 330 kts | 83° |
| 2026-05-07 09:02 | 51.78556 | 0.14715 | 11294 ft | 351 kts | 84° |
| 2026-05-07 09:02 | 51.78794 | 0.18716 | 11682 ft | 367 kts | 84° |
| 2026-05-07 09:02 | 51.79027 | 0.22888 | 12325 ft | 375 kts | 84° |
| 2026-05-07 09:03 | 51.79253 | 0.27091 | 13035 ft | 380 kts | 85° |
| 2026-05-07 09:03 | 51.79474 | 0.31337 | 13772 ft | 385 kts | 85° |
| 2026-05-07 09:03 | 51.79627 | 0.34302 | 14232 ft | 389 kts | 85° |
| 2026-05-07 09:03 | 51.79848 | 0.38650 | 14878 ft | 393 kts | 85° |
| 2026-05-07 09:04 | 51.80073 | 0.43105 | 15556 ft | 397 kts | 85° |
| 2026-05-07 09:04 | 51.80296 | 0.47534 | 16222 ft | 401 kts | 85° |
| 2026-05-07 09:04 | 51.80523 | 0.52070 | 16881 ft | 405 kts | 85° |
| 2026-05-07 09:04 | 51.80749 | 0.56607 | 17518 ft | 409 kts | 85° |
| 2026-05-07 09:05 | 51.80978 | 0.61218 | 18164 ft | 412 kts | 85° |
| 2026-05-07 09:05 | 51.81349 | 0.65845 | 18720 ft | 416 kts | 81° |
| 2026-05-07 09:05 | 51.81861 | 0.70422 | 19266 ft | 419 kts | 79° |
| 2026-05-07 09:05 | 51.82465 | 0.75072 | 19813 ft | 422 kts | 77° |
| 2026-05-07 09:06 | 51.83129 | 0.79741 | 20369 ft | 425 kts | 76° |
| 2026-05-07 09:06 | 51.83852 | 0.84348 | 20934 ft | 427 kts | 75° |
| 2026-05-07 09:06 | 51.84649 | 0.88993 | 21487 ft | 430 kts | 74° |
| 2026-05-07 09:06 | 51.85496 | 0.93694 | 22023 ft | 433 kts | 73° |
| 2026-05-07 09:07 | 51.86351 | 0.98341 | 22541 ft | 436 kts | 73° |
| 2026-05-07 09:07 | 51.87229 | 1.03082 | 23067 ft | 439 kts | 73° |
| 2026-05-07 09:07 | 51.88097 | 1.07787 | 23542 ft | 442 kts | 73° |
| 2026-05-07 09:07 | 51.88978 | 1.12590 | 23962 ft | 444 kts | 73° |
| 2026-05-07 09:08 | 51.89856 | 1.17413 | 24411 ft | 446 kts | 73° |
| 2026-05-07 09:08 | 51.90715 | 1.22167 | 24822 ft | 447 kts | 73° |
| 2026-05-07 09:08 | 51.91597 | 1.27074 | 25232 ft | 449 kts | 73° |
| 2026-05-07 09:08 | 51.92465 | 1.31920 | 25641 ft | 450 kts | 73° |
| 2026-05-07 09:09 | 51.93342 | 1.36843 | 26046 ft | 452 kts | 73° |
| 2026-05-07 09:09 | 51.94205 | 1.41699 | 26430 ft | 454 kts | 73° |
| 2026-05-07 09:09 | 51.95084 | 1.46661 | 26803 ft | 455 kts | 73° |
| 2026-05-07 09:09 | 51.95950 | 1.51567 | 27166 ft | 457 kts | 73° |
| 2026-05-07 09:10 | 51.96828 | 1.56549 | 27648 ft | 455 kts | 73° |
| 2026-05-07 09:10 | 51.97687 | 1.61433 | 28192 ft | 452 kts | 73° |
| 2026-05-07 09:10 | 51.98552 | 1.66361 | 28746 ft | 450 kts | 73° |
| 2026-05-07 09:10 | 51.99382 | 1.71210 | 29196 ft | 449 kts | 75° |
| 2026-05-07 09:11 | 52.00184 | 1.76110 | 29625 ft | 448 kts | 75° |
| 2026-05-07 09:11 | 52.00970 | 1.81049 | 30073 ft | 447 kts | 75° |
| 2026-05-07 09:11 | 52.01726 | 1.85890 | 30432 ft | 446 kts | 75° |
| 2026-05-07 09:11 | 52.02484 | 1.90793 | 30759 ft | 446 kts | 75° |
| 2026-05-07 09:12 | 52.03240 | 1.95705 | 31076 ft | 446 kts | 75° |
| 2026-05-07 09:12 | 52.03984 | 2.00549 | 31392 ft | 445 kts | 76° |
| 2026-05-07 09:12 | 52.04734 | 2.05442 | 31699 ft | 445 kts | 75° |
| 2026-05-07 09:12 | 52.05485 | 2.10349 | 32016 ft | 445 kts | 75° |
| 2026-05-07 09:13 | 52.06223 | 2.15183 | 32315 ft | 444 kts | 75° |
| 2026-05-07 09:13 | 52.06970 | 2.20084 | 32619 ft | 444 kts | 76° |
| 2026-05-07 09:13 | 52.07707 | 2.24933 | 32909 ft | 444 kts | 76° |
| 2026-05-07 09:13 | 52.08453 | 2.29852 | 33172 ft | 444 kts | 76° |
| 2026-05-07 09:14 | 52.09185 | 2.34689 | 33428 ft | 444 kts | 76° |
| 2026-05-07 09:14 | 52.09922 | 2.39579 | 33679 ft | 445 kts | 76° |
| 2026-05-07 09:14 | 52.10651 | 2.44428 | 33925 ft | 445 kts | 76° |
| 2026-05-07 09:14 | 52.11401 | 2.49335 | 34154 ft | 445 kts | 75° |
| 2026-05-07 09:15 | 52.12229 | 2.54216 | 34352 ft | 445 kts | 73° |
| 2026-05-07 09:15 | 52.13104 | 2.58994 | 34529 ft | 446 kts | 72° |
| 2026-05-07 09:15 | 52.14027 | 2.63848 | 34708 ft | 446 kts | 72° |
| 2026-05-07 09:15 | 52.14953 | 2.68633 | 34873 ft | 447 kts | 72° |
| 2026-05-07 09:16 | 52.15901 | 2.73524 | 35053 ft | 448 kts | 72° |
| 2026-05-07 09:16 | 52.16824 | 2.78309 | 35234 ft | 448 kts | 72° |
| 2026-05-07 09:16 | 52.17757 | 2.83177 | 35396 ft | 449 kts | 72° |
| 2026-05-07 09:16 | 52.18675 | 2.88003 | 35540 ft | 450 kts | 72° |
| 2026-05-07 09:17 | 52.19569 | 2.92917 | 35692 ft | 450 kts | 76° |
| 2026-05-07 09:17 | 52.20158 | 2.97967 | 35826 ft | 451 kts | 83° |
| 2026-05-07 09:17 | 52.20266 | 3.03014 | 35945 ft | 452 kts | 94° |
| 2026-05-07 09:17 | 52.19779 | 3.08098 | 36081 ft | 453 kts | 105° |
| 2026-05-07 09:18 | 52.18836 | 3.13038 | 36231 ft | 453 kts | 110° |
| 2026-05-07 09:18 | 52.17746 | 3.17775 | 36370 ft | 454 kts | 112° |
| 2026-05-07 09:18 | 52.16549 | 3.22599 | 36512 ft | 454 kts | 112° |
| 2026-05-07 09:18 | 52.15352 | 3.27330 | 36644 ft | 455 kts | 113° |
| 2026-05-07 09:19 | 52.14162 | 3.32061 | 36787 ft | 455 kts | 112° |
| 2026-05-07 09:19 | 52.12968 | 3.36892 | 36937 ft | 456 kts | 112° |
| 2026-05-07 09:19 | 52.11797 | 3.41708 | 37063 ft | 456 kts | 112° |
| 2026-05-07 09:19 | 52.10631 | 3.46570 | 37081 ft | 459 kts | 111° |
| 2026-05-07 09:20 | 52.08323 | 3.56276 | 37082 ft | 459 kts | 111° |
| 2026-05-07 09:20 | 52.06016 | 3.65992 | 37081 ft | 459 kts | 111° |
| 2026-05-07 09:21 | 52.03727 | 3.75595 | 37083 ft | 459 kts | 111° |
| 2026-05-07 09:21 | 52.01408 | 3.85262 | 37077 ft | 459 kts | 112° |
| 2026-05-07 09:22 | 51.99073 | 3.94947 | 37077 ft | 459 kts | 112° |
| 2026-05-07 09:22 | 51.96707 | 4.04714 | 37074 ft | 459 kts | 112° |
| 2026-05-07 09:23 | 51.94357 | 4.14377 | 37074 ft | 459 kts | 112° |
| 2026-05-07 09:23 | 51.92010 | 4.23980 | 37073 ft | 459 kts | 112° |
| 2026-05-07 09:24 | 51.89659 | 4.33562 | 37077 ft | 459 kts | 112° |
| 2026-05-07 09:24 | 51.87281 | 4.43211 | 37074 ft | 459 kts | 112° |
| 2026-05-07 09:25 | 51.84901 | 4.52825 | 37073 ft | 459 kts | 112° |
| 2026-05-07 09:25 | 51.82522 | 4.62395 | 37067 ft | 459 kts | 112° |
| 2026-05-07 09:26 | 51.80141 | 4.71930 | 37067 ft | 459 kts | 112° |
| 2026-05-07 09:26 | 51.77743 | 4.81494 | 37066 ft | 459 kts | 113° |
| 2026-05-07 09:27 | 51.75320 | 4.91114 | 37058 ft | 460 kts | 113° |
| 2026-05-07 09:28 | 51.71679 | 5.05489 | 37055 ft | 459 kts | 113° |
| 2026-05-07 09:28 | 51.69247 | 5.15037 | 37053 ft | 460 kts | 113° |
| 2026-05-07 09:29 | 51.66814 | 5.24551 | 37053 ft | 460 kts | 113° |
| 2026-05-07 09:29 | 51.64376 | 5.34047 | 37051 ft | 459 kts | 113° |
| 2026-05-07 09:30 | 51.61933 | 5.43522 | 37048 ft | 459 kts | 113° |
| 2026-05-07 09:30 | 51.59456 | 5.53088 | 37047 ft | 460 kts | 113° |
| 2026-05-07 09:31 | 51.56991 | 5.62565 | 37048 ft | 460 kts | 113° |
| 2026-05-07 09:31 | 51.54517 | 5.72039 | 37048 ft | 460 kts | 113° |
| 2026-05-07 09:32 | 51.52049 | 5.81451 | 37046 ft | 460 kts | 113° |
| 2026-05-07 09:32 | 51.49556 | 5.90918 | 37048 ft | 460 kts | 114° |
| 2026-05-07 09:33 | 51.47470 | 5.98808 | 37045 ft | 460 kts | 114° |
| 2026-05-07 09:33 | 51.44967 | 6.08241 | 37046 ft | 460 kts | 114° |
| 2026-05-07 09:34 | 51.42465 | 6.17632 | 37046 ft | 460 kts | 114° |
| 2026-05-07 09:34 | 51.39933 | 6.27097 | 37046 ft | 460 kts | 114° |
| 2026-05-07 09:35 | 51.37397 | 6.36535 | 37047 ft | 461 kts | 114° |
| 2026-05-07 09:35 | 51.34850 | 6.45978 | 37047 ft | 461 kts | 114° |
| 2026-05-07 09:36 | 51.32302 | 6.55387 | 37048 ft | 461 kts | 114° |
| 2026-05-07 09:36 | 51.29761 | 6.64732 | 37049 ft | 461 kts | 114° |
| 2026-05-07 09:37 | 51.27183 | 6.74176 | 37049 ft | 461 kts | 114° |
| 2026-05-07 09:37 | 51.24616 | 6.83542 | 37050 ft | 461 kts | 114° |
| 2026-05-07 09:38 | 51.22041 | 6.92897 | 37045 ft | 461 kts | 114° |
| 2026-05-07 09:38 | 51.19446 | 7.02293 | 37043 ft | 461 kts | 114° |
| 2026-05-07 09:39 | 51.16846 | 7.11665 | 37038 ft | 462 kts | 114° |
| 2026-05-07 09:39 | 51.14238 | 7.21034 | 37031 ft | 462 kts | 115° |
| 2026-05-07 09:40 | 51.11640 | 7.30329 | 37033 ft | 462 kts | 115° |
| 2026-05-07 09:40 | 51.09009 | 7.39703 | 37037 ft | 462 kts | 115° |
| 2026-05-07 09:41 | 51.06392 | 7.48991 | 37025 ft | 462 kts | 115° |
| 2026-05-07 09:41 | 51.03753 | 7.58320 | 37022 ft | 462 kts | 115° |
| 2026-05-07 09:42 | 51.01096 | 7.67673 | 37016 ft | 462 kts | 115° |
| 2026-05-07 09:42 | 50.98453 | 7.76941 | 37015 ft | 462 kts | 115° |
| 2026-05-07 09:43 | 50.95790 | 7.86240 | 37008 ft | 462 kts | 115° |
| 2026-05-07 09:43 | 50.93021 | 7.95398 | 37001 ft | 461 kts | 121° |
| 2026-05-07 09:44 | 50.89059 | 8.03372 | 36999 ft | 458 kts | 135° |
| 2026-05-07 09:44 | 50.84464 | 8.10377 | 36996 ft | 458 kts | 138° |
| 2026-05-07 09:45 | 50.79803 | 8.17181 | 36992 ft | 459 kts | 138° |
| 2026-05-07 09:45 | 50.75136 | 8.24090 | 36994 ft | 459 kts | 137° |
| 2026-05-07 09:46 | 50.70535 | 8.31004 | 36999 ft | 459 kts | 137° |
| 2026-05-07 09:46 | 50.65895 | 8.38013 | 36994 ft | 459 kts | 137° |
| 2026-05-07 09:47 | 50.61288 | 8.44964 | 36998 ft | 459 kts | 137° |
| 2026-05-07 09:47 | 50.56661 | 8.51922 | 36999 ft | 459 kts | 137° |
| 2026-05-07 09:48 | 50.52062 | 8.58817 | 36999 ft | 458 kts | 137° |
| 2026-05-07 09:48 | 50.47445 | 8.65717 | 37000 ft | 458 kts | 137° |
| 2026-05-07 09:49 | 50.42818 | 8.72612 | 37005 ft | 458 kts | 137° |
| 2026-05-07 09:49 | 50.38183 | 8.79498 | 36998 ft | 458 kts | 138° |
| 2026-05-07 09:50 | 50.33952 | 8.86985 | 36995 ft | 460 kts | 123° |
| 2026-05-07 09:50 | 50.31099 | 8.95974 | 36993 ft | 462 kts | 114° |
| 2026-05-07 09:51 | 50.28581 | 9.05321 | 36992 ft | 463 kts | 114° |
| 2026-05-07 09:51 | 50.26060 | 9.14525 | 36988 ft | 463 kts | 115° |
| 2026-05-07 09:52 | 50.23429 | 9.23716 | 36987 ft | 462 kts | 116° |
| 2026-05-07 09:52 | 50.20748 | 9.32865 | 36987 ft | 462 kts | 116° |
| 2026-05-07 09:53 | 50.18067 | 9.41949 | 36985 ft | 462 kts | 116° |
| 2026-05-07 09:53 | 50.15353 | 9.51125 | 36983 ft | 462 kts | 116° |
| 2026-05-07 09:54 | 50.12654 | 9.60227 | 36979 ft | 462 kts | 116° |
| 2026-05-07 09:54 | 50.09950 | 9.69316 | 36983 ft | 463 kts | 116° |
| 2026-05-07 09:55 | 50.07391 | 9.78574 | 36980 ft | 464 kts | 109° |
| 2026-05-07 09:55 | 50.05752 | 9.88276 | 36982 ft | 465 kts | 104° |
| 2026-05-07 09:56 | 50.04451 | 9.98165 | 36983 ft | 466 kts | 102° |
| 2026-05-07 09:56 | 50.03271 | 10.08028 | 36982 ft | 466 kts | 102° |
| 2026-05-07 09:57 | 50.02083 | 10.18012 | 36985 ft | 466 kts | 102° |
| 2026-05-07 09:57 | 50.00888 | 10.27850 | 36976 ft | 466 kts | 102° |
| 2026-05-07 09:58 | 49.99665 | 10.37740 | 36974 ft | 466 kts | 102° |
| 2026-05-07 09:58 | 49.98425 | 10.47656 | 36977 ft | 466 kts | 103° |
| 2026-05-07 09:59 | 49.97179 | 10.57545 | 36971 ft | 466 kts | 103° |
| 2026-05-07 09:59 | 49.95908 | 10.67440 | 36969 ft | 466 kts | 103° |
| 2026-05-07 10:00 | 49.94586 | 10.77321 | 36966 ft | 466 kts | 103° |
| 2026-05-07 10:00 | 49.93252 | 10.87122 | 36974 ft | 466 kts | 104° |
| 2026-05-07 10:01 | 49.91900 | 10.96993 | 36962 ft | 466 kts | 104° |
| 2026-05-07 10:01 | 49.90542 | 11.06850 | 36963 ft | 467 kts | 104° |
| 2026-05-07 10:02 | 49.89188 | 11.16638 | 36965 ft | 467 kts | 104° |
| 2026-05-07 10:02 | 49.87808 | 11.26545 | 36960 ft | 467 kts | 104° |
| 2026-05-07 10:03 | 49.86435 | 11.36334 | 36959 ft | 467 kts | 104° |
| 2026-05-07 10:03 | 49.85047 | 11.46167 | 36960 ft | 468 kts | 104° |
| 2026-05-07 10:04 | 49.83879 | 11.54392 | 36963 ft | 468 kts | 104° |
| 2026-05-07 10:04 | 49.82240 | 11.65857 | 36962 ft | 469 kts | 105° |
| 2026-05-07 10:05 | 49.81054 | 11.74109 | 36953 ft | 469 kts | 105° |
| 2026-05-07 10:05 | 49.79634 | 11.83927 | 36956 ft | 469 kts | 105° |
| 2026-05-07 10:06 | 49.78192 | 11.93823 | 36950 ft | 469 kts | 105° |
| 2026-05-07 10:06 | 49.76751 | 12.03652 | 36954 ft | 469 kts | 105° |
| 2026-05-07 10:07 | 49.75301 | 12.13481 | 36953 ft | 469 kts | 105° |
| 2026-05-07 10:07 | 49.73844 | 12.23299 | 36954 ft | 469 kts | 105° |
| 2026-05-07 10:08 | 49.72363 | 12.33210 | 36952 ft | 470 kts | 105° |
| 2026-05-07 10:08 | 49.70892 | 12.43000 | 36957 ft | 470 kts | 106° |
| 2026-05-07 10:09 | 49.69281 | 12.52773 | 36959 ft | 469 kts | 109° |
| 2026-05-07 10:09 | 49.67379 | 12.62427 | 36960 ft | 468 kts | 110° |
| 2026-05-07 10:10 | 49.65395 | 12.71991 | 36960 ft | 468 kts | 111° |
| 2026-05-07 10:10 | 49.63392 | 12.81620 | 36959 ft | 469 kts | 111° |
| 2026-05-07 10:11 | 49.61444 | 12.91030 | 36963 ft | 469 kts | 111° |
| 2026-05-07 10:11 | 49.59520 | 13.00329 | 36958 ft | 469 kts | 111° |
| 2026-05-07 10:12 | 49.57528 | 13.09938 | 36969 ft | 470 kts | 111° |
| 2026-05-07 10:12 | 49.55549 | 13.19437 | 36966 ft | 470 kts | 111° |
| 2026-05-07 10:13 | 49.53553 | 13.28972 | 36961 ft | 470 kts | 111° |
| 2026-05-07 10:13 | 49.51591 | 13.38295 | 36963 ft | 470 kts | 112° |
| 2026-05-07 10:14 | 49.49635 | 13.47551 | 36963 ft | 470 kts | 112° |
| 2026-05-07 10:14 | 49.47634 | 13.56974 | 36959 ft | 471 kts | 112° |
| 2026-05-07 10:15 | 49.45608 | 13.66475 | 36961 ft | 471 kts | 112° |
| 2026-05-07 10:15 | 49.43572 | 13.75976 | 36960 ft | 470 kts | 112° |
| 2026-05-07 10:16 | 49.41558 | 13.85579 | 36954 ft | 471 kts | 111° |
| 2026-05-07 10:16 | 49.39777 | 13.95138 | 36961 ft | 472 kts | 110° |
| 2026-05-07 10:17 | 49.38106 | 14.04517 | 36963 ft | 472 kts | 110° |
| 2026-05-07 10:17 | 49.36430 | 14.13897 | 36961 ft | 471 kts | 110° |
| 2026-05-07 10:18 | 49.34768 | 14.23074 | 36951 ft | 471 kts | 110° |
| 2026-05-07 10:18 | 49.33022 | 14.32602 | 36953 ft | 471 kts | 110° |
| 2026-05-07 10:19 | 49.31257 | 14.42170 | 36948 ft | 469 kts | 110° |
| 2026-05-07 10:19 | 49.29522 | 14.51517 | 36946 ft | 468 kts | 110° |
| 2026-05-07 10:20 | 49.27799 | 14.60757 | 36950 ft | 468 kts | 111° |
| 2026-05-07 10:20 | 49.26013 | 14.70290 | 36953 ft | 468 kts | 111° |
| 2026-05-07 10:21 | 49.24237 | 14.79712 | 36960 ft | 467 kts | 111° |
| 2026-05-07 10:21 | 49.22458 | 14.89109 | 36960 ft | 467 kts | 111° |
| 2026-05-07 10:22 | 49.20701 | 14.98342 | 36958 ft | 467 kts | 111° |
| 2026-05-07 10:22 | 49.18941 | 15.07551 | 36960 ft | 466 kts | 111° |
| 2026-05-07 10:23 | 49.17170 | 15.16764 | 36959 ft | 466 kts | 111° |
| 2026-05-07 10:23 | 49.15352 | 15.26186 | 36955 ft | 466 kts | 111° |
| 2026-05-07 10:24 | 49.13593 | 15.35257 | 36941 ft | 466 kts | 112° |
| 2026-05-07 10:24 | 49.11712 | 15.44902 | 36961 ft | 466 kts | 112° |
| 2026-05-07 10:25 | 49.09857 | 15.54374 | 36950 ft | 465 kts | 112° |
| 2026-05-07 10:25 | 49.07990 | 15.63851 | 36959 ft | 465 kts | 112° |
| 2026-05-07 10:26 | 49.06124 | 15.73283 | 36953 ft | 465 kts | 112° |
| 2026-05-07 10:26 | 49.04242 | 15.82748 | 36958 ft | 465 kts | 112° |
| 2026-05-07 10:27 | 49.02363 | 15.92151 | 36963 ft | 465 kts | 112° |
| 2026-05-07 10:27 | 49.00468 | 16.01588 | 36957 ft | 465 kts | 112° |
| 2026-05-07 10:28 | 48.98558 | 16.11048 | 36963 ft | 465 kts | 112° |
| 2026-05-07 10:28 | 48.96654 | 16.20436 | 36957 ft | 465 kts | 112° |
| 2026-05-07 10:29 | 48.94749 | 16.29784 | 36956 ft | 466 kts | 112° |
| 2026-05-07 10:29 | 48.92813 | 16.39239 | 36953 ft | 466 kts | 112° |
| 2026-05-07 10:30 | 48.89907 | 16.53345 | 36955 ft | 466 kts | 112° |
| 2026-05-07 10:30 | 48.87967 | 16.62700 | 36957 ft | 466 kts | 113° |
| 2026-05-07 10:31 | 48.86018 | 16.72063 | 36953 ft | 466 kts | 113° |
| 2026-05-07 10:31 | 48.84036 | 16.81536 | 36959 ft | 466 kts | 113° |
| 2026-05-07 10:32 | 48.82066 | 16.90901 | 36948 ft | 467 kts | 113° |
| 2026-05-07 10:32 | 48.80091 | 17.00253 | 36961 ft | 467 kts | 113° |
| 2026-05-07 10:33 | 48.77668 | 17.09366 | 36958 ft | 457 kts | 126° |
| 2026-05-07 10:33 | 48.74191 | 17.17332 | 36960 ft | 454 kts | 131° |
| 2026-05-07 10:34 | 48.70491 | 17.25141 | 36962 ft | 455 kts | 131° |
| 2026-05-07 10:34 | 48.66841 | 17.32975 | 36968 ft | 456 kts | 130° |
| 2026-05-07 10:35 | 48.63279 | 17.40823 | 36969 ft | 456 kts | 129° |
| 2026-05-07 10:35 | 48.59664 | 17.48864 | 36980 ft | 457 kts | 129° |
| 2026-05-07 10:36 | 48.56095 | 17.56793 | 36985 ft | 457 kts | 129° |
| 2026-05-07 10:36 | 48.52522 | 17.64699 | 36984 ft | 457 kts | 129° |
| 2026-05-07 10:37 | 48.48939 | 17.72597 | 36985 ft | 457 kts | 129° |
| 2026-05-07 10:37 | 48.45343 | 17.80497 | 36984 ft | 457 kts | 129° |
| 2026-05-07 10:38 | 48.41750 | 17.88365 | 36979 ft | 457 kts | 129° |
| 2026-05-07 10:38 | 48.38741 | 17.94938 | 36975 ft | 457 kts | 129° |
| 2026-05-07 10:39 | 48.35119 | 18.02829 | 36973 ft | 457 kts | 129° |
| 2026-05-07 10:39 | 48.31488 | 18.10717 | 36967 ft | 457 kts | 129° |
| 2026-05-07 10:40 | 48.27858 | 18.18579 | 36961 ft | 457 kts | 129° |
| 2026-05-07 10:40 | 48.24217 | 18.26429 | 36934 ft | 458 kts | 129° |
| 2026-05-07 10:41 | 48.20514 | 18.34225 | 36988 ft | 455 kts | 133° |
| 2026-05-07 10:41 | 48.18521 | 18.37821 | 37165 ft | 448 kts | 136° |
| 2026-05-07 10:41 | 48.16434 | 18.41302 | 37342 ft | 443 kts | 138° |
| 2026-05-07 10:42 | 48.12199 | 18.47981 | 37237 ft | 445 kts | 139° |
| 2026-05-07 10:42 | 48.10037 | 18.51296 | 37050 ft | 449 kts | 139° |
| 2026-05-07 10:42 | 48.07829 | 18.54646 | 36971 ft | 451 kts | 140° |
| 2026-05-07 10:43 | 48.03440 | 18.61270 | 37205 ft | 445 kts | 140° |
| 2026-05-07 10:43 | 47.99110 | 18.67793 | 37250 ft | 444 kts | 140° |
| 2026-05-07 10:44 | 47.96906 | 18.71106 | 37094 ft | 448 kts | 140° |
| 2026-05-07 10:44 | 47.94717 | 18.74386 | 36975 ft | 450 kts | 140° |
| 2026-05-07 10:44 | 47.90300 | 18.80998 | 37116 ft | 447 kts | 140° |
| 2026-05-07 10:45 | 47.88119 | 18.84269 | 37226 ft | 445 kts | 140° |
| 2026-05-07 10:45 | 47.85924 | 18.87563 | 37245 ft | 445 kts | 140° |
| 2026-05-07 10:45 | 47.81556 | 18.94103 | 37037 ft | 450 kts | 140° |
| 2026-05-07 10:46 | 47.77122 | 19.00726 | 37053 ft | 450 kts | 140° |
| 2026-05-07 10:46 | 47.72746 | 19.07281 | 37191 ft | 447 kts | 140° |
| 2026-05-07 10:47 | 47.68334 | 19.13885 | 37041 ft | 451 kts | 140° |
| 2026-05-07 10:47 | 47.63889 | 19.20503 | 37057 ft | 450 kts | 140° |
| 2026-05-07 10:48 | 47.59492 | 19.27035 | 37170 ft | 448 kts | 140° |
| 2026-05-07 10:48 | 47.55074 | 19.33594 | 37076 ft | 451 kts | 140° |
| 2026-05-07 10:49 | 47.50643 | 19.40157 | 37053 ft | 452 kts | 140° |
| 2026-05-07 10:49 | 47.46187 | 19.46750 | 37154 ft | 450 kts | 140° |
| 2026-05-07 10:50 | 47.41781 | 19.53269 | 37073 ft | 452 kts | 140° |
| 2026-05-07 10:50 | 47.37306 | 19.59877 | 37026 ft | 453 kts | 140° |
| 2026-05-07 10:51 | 47.32870 | 19.66429 | 37127 ft | 451 kts | 140° |
| 2026-05-07 10:51 | 47.28452 | 19.72962 | 37103 ft | 453 kts | 140° |
| 2026-05-07 10:52 | 47.23987 | 19.79555 | 37029 ft | 455 kts | 140° |
| 2026-05-07 10:52 | 47.19517 | 19.86143 | 37103 ft | 453 kts | 140° |
| 2026-05-07 10:53 | 47.15056 | 19.92713 | 37115 ft | 454 kts | 140° |
| 2026-05-07 10:53 | 47.10606 | 19.99259 | 37047 ft | 456 kts | 140° |
| 2026-05-07 10:54 | 47.06131 | 20.05828 | 37068 ft | 455 kts | 140° |
| 2026-05-07 10:54 | 47.02287 | 20.11462 | 36893 ft | 460 kts | 140° |
| 2026-05-07 10:55 | 46.99985 | 20.14820 | 36704 ft | 465 kts | 140° |
| 2026-05-07 10:55 | 46.97680 | 20.18169 | 36650 ft | 466 kts | 140° |
| 2026-05-07 10:55 | 46.95402 | 20.21474 | 36768 ft | 463 kts | 140° |
| 2026-05-07 10:55 | 46.93369 | 20.24423 | 36933 ft | 0 kts | 140° |
| 2026-05-07 10:56 | 46.91597 | 20.26557 | 37583 ft | 439 kts | 146° |
| 2026-05-07 10:56 | 46.89260 | 20.29329 | 38284 ft | 428 kts | 145° |
| 2026-05-07 10:56 | 46.86989 | 20.32251 | 37802 ft | 442 kts | 143° |
| 2026-05-07 10:56 | 46.84796 | 20.35326 | 36648 ft | 470 kts | 138° |
| 2026-05-07 10:57 | 46.83045 | 20.38117 | 36011 ft | 486 kts | 135° |
| 2026-05-07 10:57 | 46.80939 | 20.41789 | 36107 ft | 470 kts | 133° |
| 2026-05-07 10:57 | 46.78908 | 20.45493 | 36584 ft | 459 kts | 132° |
| 2026-05-07 10:57 | 46.76967 | 20.49143 | 36931 ft | 452 kts | 131° |
| 2026-05-07 10:58 | 46.73139 | 20.56479 | 36426 ft | 466 kts | 131° |
| 2026-05-07 10:58 | 46.71155 | 20.60286 | 36069 ft | 475 kts | 130° |
| 2026-05-07 10:58 | 46.69149 | 20.64123 | 36069 ft | 475 kts | 130° |
| 2026-05-07 10:59 | 46.67156 | 20.67940 | 36392 ft | 467 kts | 131° |
| 2026-05-07 10:59 | 46.66737 | 20.68743 | 36480 ft | 465 kts | 131° |
| 2026-05-07 10:59 | 46.65781 | 20.70578 | 36678 ft | 461 kts | 131° |
| 2026-05-07 10:59 | 46.64325 | 20.73374 | 36863 ft | 457 kts | 131° |
| 2026-05-07 11:00 | 46.62738 | 20.76424 | 36862 ft | 458 kts | 130° |
| 2026-05-07 11:00 | 46.60833 | 20.80076 | 36620 ft | 464 kts | 130° |
| 2026-05-07 11:00 | 46.58856 | 20.83848 | 36277 ft | 473 kts | 130° |
| 2026-05-07 11:01 | 46.56844 | 20.87664 | 36137 ft | 476 kts | 130° |
| 2026-05-07 11:01 | 46.54822 | 20.91483 | 36317 ft | 472 kts | 130° |
| 2026-05-07 11:01 | 46.52834 | 20.95238 | 36659 ft | 464 kts | 131° |
| 2026-05-07 11:01 | 46.50878 | 20.98935 | 36856 ft | 460 kts | 131° |
| 2026-05-07 11:02 | 46.48933 | 21.02617 | 36691 ft | 458 kts | 130° |
| 2026-05-07 11:02 | 46.47233 | 21.05828 | 36116 ft | 462 kts | 130° |
| 2026-05-07 11:02 | 46.45274 | 21.09508 | 35209 ft | 471 kts | 130° |
| 2026-05-07 11:02 | 46.43247 | 21.13282 | 34462 ft | 476 kts | 130° |
| 2026-05-07 11:03 | 46.41215 | 21.17037 | 34146 ft | 469 kts | 130° |
| 2026-05-07 11:03 | 46.41067 | 21.17310 | 34140 ft | 468 kts | 130° |
| 2026-05-07 11:03 | 46.39211 | 21.20713 | 34150 ft | 455 kts | 131° |
| 2026-05-07 11:03 | 46.38281 | 21.22410 | 34166 ft | 448 kts | 131° |
| 2026-05-07 11:05 | 51.88087 | -0.37356 | 512 ft | 446 kts | 341° |